Weather at Aarhus Airport

Public forecast

Using degrees Celsius for public forecast. Weather courtesy of forecast.io.

Current aviation weather report (METAR) for Aarhus Airport

Retrieved 2022/01/24 02:20 UTC (38 minutes ago):

EKAH 240220Z AUTO 26011G21KT 9999 OVC010/// 07/05 Q1030

Aviation forecast (TAF) for Aarhus Airport

Retrieved 2022-01-24 00:30 UTC (2 hours ago):

TAF EKAH 232320Z 2400/2424 26008KT 3000 BR BKN006 BECMG 2400/2403 9999 NSW BKN020 TEMPO 2403/2418 BKN010 TEMPO 2418/2424 3000 BR BKN006